sensor_id;sensor_type;location;lat;lon;timestamp;P1;durP1;ratioP1;P2;durP2;ratioP2
19225;SDS011;9747;48.536;12.522;2023-12-22T00:02:22;1.35;;;1.20;;
19225;SDS011;9747;48.536;12.522;2023-12-22T00:04:51;2.67;;;1.50;;
19225;SDS011;9747;48.536;12.522;2023-12-22T00:07:18;1.65;;;1.30;;
19225;SDS011;9747;48.536;12.522;2023-12-22T00:09:46;1.42;;;1.20;;
19225;SDS011;9747;48.536;12.522;2023-12-22T00:12:13;1.30;;;1.20;;
19225;SDS011;9747;48.536;12.522;2023-12-22T00:14:42;3.13;;;1.30;;
19225;SDS011;9747;48.536;12.522;2023-12-22T00:17:10;1.30;;;1.20;;
19225;SDS011;9747;48.536;12.522;2023-12-22T00:19:37;1.85;;;1.05;;
19225;SDS011;9747;48.536;12.522;2023-12-22T00:22:05;1.30;;;1.20;;
19225;SDS011;9747;48.536;12.522;2023-12-22T00:24:33;2.13;;;1.10;;
19225;SDS011;9747;48.536;12.522;2023-12-22T00:27:00;1.10;;;1.00;;
19225;SDS011;9747;48.536;12.522;2023-12-22T00:29:29;1.30;;;1.20;;
19225;SDS011;9747;48.536;12.522;2023-12-22T00:31:58;0.93;;;0.93;;
19225;SDS011;9747;48.536;12.522;2023-12-22T00:34:25;1.40;;;1.20;;
19225;SDS011;9747;48.536;12.522;2023-12-22T00:36:53;1.52;;;1.10;;
19225;SDS011;9747;48.536;12.522;2023-12-22T00:39:20;1.10;;;0.93;;
19225;SDS011;9747;48.536;12.522;2023-12-22T00:41:47;1.52;;;1.25;;
19225;SDS011;9747;48.536;12.522;2023-12-22T00:44:15;1.10;;;1.10;;
19225;SDS011;9747;48.536;12.522;2023-12-22T00:46:42;1.88;;;1.30;;
19225;SDS011;9747;48.536;12.522;2023-12-22T00:49:11;1.20;;;1.02;;
19225;SDS011;9747;48.536;12.522;2023-12-22T00:51:38;1.30;;;1.05;;
19225;SDS011;9747;48.536;12.522;2023-12-22T00:54:06;1.70;;;1.10;;
19225;SDS011;9747;48.536;12.522;2023-12-22T00:56:33;2.58;;;1.40;;
19225;SDS011;9747;48.536;12.522;2023-12-22T00:59:01;1.30;;;1.20;;
19225;SDS011;9747;48.536;12.522;2023-12-22T01:01:28;1.17;;;1.08;;
19225;SDS011;9747;48.536;12.522;2023-12-22T01:03:56;2.08;;;1.10;;
19225;SDS011;9747;48.536;12.522;2023-12-22T01:06:26;1.25;;;1.13;;
19225;SDS011;9747;48.536;12.522;2023-12-22T01:08:53;1.00;;;0.90;;
19225;SDS011;9747;48.536;12.522;2023-12-22T01:11:21;1.48;;;1.13;;
19225;SDS011;9747;48.536;12.522;2023-12-22T01:13:48;1.88;;;1.23;;
19225;SDS011;9747;48.536;12.522;2023-12-22T01:16:15;0.90;;;0.90;;
19225;SDS011;9747;48.536;12.522;2023-12-22T01:18:46;1.00;;;1.00;;
19225;SDS011;9747;48.536;12.522;2023-12-22T01:21:14;1.50;;;1.00;;
19225;SDS011;9747;48.536;12.522;2023-12-22T01:23:42;1.35;;;1.00;;
19225;SDS011;9747;48.536;12.522;2023-12-22T01:26:10;0.73;;;0.73;;
19225;SDS011;9747;48.536;12.522;2023-12-22T01:28:37;0.88;;;0.80;;
19225;SDS011;9747;48.536;12.522;2023-12-22T01:31:05;0.88;;;0.88;;
19225;SDS011;9747;48.536;12.522;2023-12-22T01:33:33;0.85;;;0.82;;
19225;SDS011;9747;48.536;12.522;2023-12-22T01:36:00;0.95;;;0.90;;
19225;SDS011;9747;48.536;12.522;2023-12-22T01:38:28;1.05;;;0.90;;
19225;SDS011;9747;48.536;12.522;2023-12-22T01:40:57;3.78;;;1.00;;
19225;SDS011;9747;48.536;12.522;2023-12-22T01:43:24;2.22;;;1.10;;
19225;SDS011;9747;48.536;12.522;2023-12-22T01:45:52;1.50;;;0.90;;
19225;SDS011;9747;48.536;12.522;2023-12-22T01:48:23;3.78;;;1.00;;
19225;SDS011;9747;48.536;12.522;2023-12-22T01:50:51;1.65;;;0.80;;
19225;SDS011;9747;48.536;12.522;2023-12-22T01:53:19;2.95;;;0.95;;
19225;SDS011;9747;48.536;12.522;2023-12-22T01:55:47;2.33;;;0.90;;
19225;SDS011;9747;48.536;12.522;2023-12-22T01:58:16;1.58;;;0.90;;
19225;SDS011;9747;48.536;12.522;2023-12-22T02:00:44;1.92;;;0.95;;
19225;SDS011;9747;48.536;12.522;2023-12-22T02:03:12;3.03;;;1.00;;
19225;SDS011;9747;48.536;12.522;2023-12-22T02:05:40;1.58;;;0.70;;
19225;SDS011;9747;48.536;12.522;2023-12-22T02:08:07;0.60;;;0.60;;
19225;SDS011;9747;48.536;12.522;2023-12-22T02:10:36;2.88;;;0.80;;
19225;SDS011;9747;48.536;12.522;2023-12-22T02:13:03;0.77;;;0.70;;
19225;SDS011;9747;48.536;12.522;2023-12-22T02:15:32;0.90;;;0.60;;
19225;SDS011;9747;48.536;12.522;2023-12-22T02:18:02;2.53;;;0.98;;
19225;SDS011;9747;48.536;12.522;2023-12-22T02:20:33;0.80;;;0.80;;
19225;SDS011;9747;48.536;12.522;2023-12-22T02:23:02;0.70;;;0.70;;
19225;SDS011;9747;48.536;12.522;2023-12-22T02:25:30;2.42;;;0.63;;
19225;SDS011;9747;48.536;12.522;2023-12-22T02:27:58;2.03;;;0.80;;
19225;SDS011;9747;48.536;12.522;2023-12-22T02:30:31;0.80;;;0.80;;
19225;SDS011;9747;48.536;12.522;2023-12-22T02:33:04;1.13;;;0.70;;
19225;SDS011;9747;48.536;12.522;2023-12-22T02:35:35;0.90;;;0.88;;
19225;SDS011;9747;48.536;12.522;2023-12-22T02:38:08;1.25;;;0.70;;
19225;SDS011;9747;48.536;12.522;2023-12-22T02:40:35;0.70;;;0.70;;
19225;SDS011;9747;48.536;12.522;2023-12-22T02:43:03;2.42;;;0.90;;
19225;SDS011;9747;48.536;12.522;2023-12-22T02:45:31;1.27;;;0.75;;
19225;SDS011;9747;48.536;12.522;2023-12-22T02:47:59;1.15;;;0.70;;
19225;SDS011;9747;48.536;12.522;2023-12-22T02:50:27;1.15;;;0.60;;
19225;SDS011;9747;48.536;12.522;2023-12-22T02:52:54;0.80;;;0.60;;
19225;SDS011;9747;48.536;12.522;2023-12-22T02:55:23;1.00;;;0.60;;
19225;SDS011;9747;48.536;12.522;2023-12-22T02:57:50;0.70;;;0.70;;
19225;SDS011;9747;48.536;12.522;2023-12-22T03:00:18;1.33;;;0.82;;
19225;SDS011;9747;48.536;12.522;2023-12-22T03:02:45;0.50;;;0.50;;
19225;SDS011;9747;48.536;12.522;2023-12-22T03:05:13;0.73;;;0.60;;
19225;SDS011;9747;48.536;12.522;2023-12-22T03:07:40;0.60;;;0.57;;
19225;SDS011;9747;48.536;12.522;2023-12-22T03:10:08;0.50;;;0.50;;
19225;SDS011;9747;48.536;12.522;2023-12-22T03:12:37;0.60;;;0.60;;
19225;SDS011;9747;48.536;12.522;2023-12-22T03:15:05;0.70;;;0.52;;
19225;SDS011;9747;48.536;12.522;2023-12-22T03:17:33;0.60;;;0.60;;
19225;SDS011;9747;48.536;12.522;2023-12-22T03:20:00;0.70;;;0.60;;
19225;SDS011;9747;48.536;12.522;2023-12-22T03:22:27;1.55;;;0.60;;
19225;SDS011;9747;48.536;12.522;2023-12-22T03:24:55;0.88;;;0.55;;
19225;SDS011;9747;48.536;12.522;2023-12-22T03:27:22;0.73;;;0.60;;
19225;SDS011;9747;48.536;12.522;2023-12-22T03:29:51;0.65;;;0.60;;
19225;SDS011;9747;48.536;12.522;2023-12-22T03:32:18;0.60;;;0.60;;
19225;SDS011;9747;48.536;12.522;2023-12-22T03:34:45;1.25;;;0.60;;
19225;SDS011;9747;48.536;12.522;2023-12-22T03:37:13;1.17;;;0.63;;
19225;SDS011;9747;48.536;12.522;2023-12-22T03:39:41;1.08;;;0.60;;
19225;SDS011;9747;48.536;12.522;2023-12-22T03:42:08;0.55;;;0.47;;
19225;SDS011;9747;48.536;12.522;2023-12-22T03:44:35;0.60;;;0.60;;
19225;SDS011;9747;48.536;12.522;2023-12-22T03:47:04;0.45;;;0.40;;
19225;SDS011;9747;48.536;12.522;2023-12-22T03:49:32;0.50;;;0.50;;
19225;SDS011;9747;48.536;12.522;2023-12-22T03:52:00;0.75;;;0.60;;
19225;SDS011;9747;48.536;12.522;2023-12-22T03:54:27;0.90;;;0.40;;
19225;SDS011;9747;48.536;12.522;2023-12-22T03:56:54;1.70;;;0.52;;
19225;SDS011;9747;48.536;12.522;2023-12-22T03:59:22;0.32;;;0.32;;
19225;SDS011;9747;48.536;12.522;2023-12-22T04:01:52;1.20;;;0.60;;
19225;SDS011;9747;48.536;12.522;2023-12-22T04:04:23;0.60;;;0.60;;
19225;SDS011;9747;48.536;12.522;2023-12-22T04:06:53;1.27;;;0.50;;
19225;SDS011;9747;48.536;12.522;2023-12-22T04:09:20;1.17;;;0.80;;
19225;SDS011;9747;48.536;12.522;2023-12-22T04:11:47;0.63;;;0.63;;
19225;SDS011;9747;48.536;12.522;2023-12-22T04:14:15;0.50;;;0.50;;
19225;SDS011;9747;48.536;12.522;2023-12-22T04:16:43;1.25;;;0.60;;
19225;SDS011;9747;48.536;12.522;2023-12-22T04:19:11;0.57;;;0.57;;
19225;SDS011;9747;48.536;12.522;2023-12-22T04:21:39;1.25;;;0.50;;
19225;SDS011;9747;48.536;12.522;2023-12-22T04:24:07;0.40;;;0.40;;
19225;SDS011;9747;48.536;12.522;2023-12-22T04:26:35;0.40;;;0.40;;
19225;SDS011;9747;48.536;12.522;2023-12-22T04:29:03;0.52;;;0.40;;
19225;SDS011;9747;48.536;12.522;2023-12-22T04:31:30;0.47;;;0.47;;
19225;SDS011;9747;48.536;12.522;2023-12-22T04:33:58;0.50;;;0.50;;
19225;SDS011;9747;48.536;12.522;2023-12-22T04:36:25;1.38;;;0.50;;
19225;SDS011;9747;48.536;12.522;2023-12-22T04:38:54;0.50;;;0.50;;
19225;SDS011;9747;48.536;12.522;2023-12-22T04:41:21;0.52;;;0.50;;
19225;SDS011;9747;48.536;12.522;2023-12-22T04:43:49;0.45;;;0.45;;
19225;SDS011;9747;48.536;12.522;2023-12-22T04:46:16;1.33;;;0.45;;
19225;SDS011;9747;48.536;12.522;2023-12-22T04:48:43;0.77;;;0.43;;
19225;SDS011;9747;48.536;12.522;2023-12-22T04:51:11;0.85;;;0.57;;
19225;SDS011;9747;48.536;12.522;2023-12-22T04:53:38;0.45;;;0.40;;
19225;SDS011;9747;48.536;12.522;2023-12-22T04:56:07;1.58;;;0.40;;
19225;SDS011;9747;48.536;12.522;2023-12-22T04:58:34;0.32;;;0.30;;
19225;SDS011;9747;48.536;12.522;2023-12-22T05:01:02;0.73;;;0.40;;
19225;SDS011;9747;48.536;12.522;2023-12-22T05:03:29;0.30;;;0.30;;
19225;SDS011;9747;48.536;12.522;2023-12-22T05:05:57;0.32;;;0.32;;
19225;SDS011;9747;48.536;12.522;2023-12-22T05:08:24;0.65;;;0.40;;
19225;SDS011;9747;48.536;12.522;2023-12-22T05:10:52;0.32;;;0.32;;
19225;SDS011;9747;48.536;12.522;2023-12-22T05:13:20;0.52;;;0.35;;
19225;SDS011;9747;48.536;12.522;2023-12-22T05:15:48;0.40;;;0.40;;
19225;SDS011;9747;48.536;12.522;2023-12-22T05:18:16;1.05;;;0.45;;
19225;SDS011;9747;48.536;12.522;2023-12-22T05:20:43;0.32;;;0.25;;
19225;SDS011;9747;48.536;12.522;2023-12-22T05:23:10;0.32;;;0.30;;
19225;SDS011;9747;48.536;12.522;2023-12-22T05:25:38;0.32;;;0.32;;
19225;SDS011;9747;48.536;12.522;2023-12-22T05:28:05;0.30;;;0.30;;
19225;SDS011;9747;48.536;12.522;2023-12-22T05:30:34;0.30;;;0.30;;
19225;SDS011;9747;48.536;12.522;2023-12-22T05:33:02;0.35;;;0.35;;
19225;SDS011;9747;48.536;12.522;2023-12-22T05:35:29;0.30;;;0.30;;
19225;SDS011;9747;48.536;12.522;2023-12-22T05:37:57;0.30;;;0.30;;
19225;SDS011;9747;48.536;12.522;2023-12-22T05:40:24;0.52;;;0.52;;
19225;SDS011;9747;48.536;12.522;2023-12-22T05:42:52;0.35;;;0.35;;
19225;SDS011;9747;48.536;12.522;2023-12-22T05:45:19;0.35;;;0.28;;
19225;SDS011;9747;48.536;12.522;2023-12-22T05:47:48;0.55;;;0.52;;
19225;SDS011;9747;48.536;12.522;2023-12-22T05:50:15;0.57;;;0.57;;
19225;SDS011;9747;48.536;12.522;2023-12-22T05:52:42;0.80;;;0.80;;
19225;SDS011;9747;48.536;12.522;2023-12-22T05:55:10;0.55;;;0.55;;
19225;SDS011;9747;48.536;12.522;2023-12-22T05:57:38;0.57;;;0.57;;
19225;SDS011;9747;48.536;12.522;2023-12-22T06:00:06;0.60;;;0.60;;
19225;SDS011;9747;48.536;12.522;2023-12-22T06:02:36;1.10;;;0.70;;
19225;SDS011;9747;48.536;12.522;2023-12-22T06:05:06;0.63;;;0.63;;
19225;SDS011;9747;48.536;12.522;2023-12-22T06:07:34;0.60;;;0.60;;
19225;SDS011;9747;48.536;12.522;2023-12-22T06:10:01;0.70;;;0.70;;
19225;SDS011;9747;48.536;12.522;2023-12-22T06:12:29;0.60;;;0.60;;
19225;SDS011;9747;48.536;12.522;2023-12-22T06:14:57;20.38;;;2.10;;
19225;SDS011;9747;48.536;12.522;2023-12-22T06:17:24;5.45;;;1.20;;
19225;SDS011;9747;48.536;12.522;2023-12-22T06:19:52;7.13;;;1.20;;
19225;SDS011;9747;48.536;12.522;2023-12-22T06:22:20;3.33;;;1.50;;
19225;SDS011;9747;48.536;12.522;2023-12-22T06:24:48;8.15;;;1.42;;
19225;SDS011;9747;48.536;12.522;2023-12-22T06:27:15;3.15;;;1.20;;
19225;SDS011;9747;48.536;12.522;2023-12-22T06:29:43;2.08;;;1.20;;
19225;SDS011;9747;48.536;12.522;2023-12-22T06:32:11;5.22;;;1.38;;
19225;SDS011;9747;48.536;12.522;2023-12-22T06:34:38;2.72;;;1.20;;
19225;SDS011;9747;48.536;12.522;2023-12-22T06:37:06;3.35;;;1.10;;
19225;SDS011;9747;48.536;12.522;2023-12-22T06:39:35;4.60;;;1.20;;
19225;SDS011;9747;48.536;12.522;2023-12-22T06:42:02;4.32;;;0.98;;
19225;SDS011;9747;48.536;12.522;2023-12-22T06:44:35;2.50;;;0.77;;
19225;SDS011;9747;48.536;12.522;2023-12-22T06:47:03;1.55;;;0.80;;
19225;SDS011;9747;48.536;12.522;2023-12-22T06:49:31;1.23;;;1.00;;
19225;SDS011;9747;48.536;12.522;2023-12-22T06:51:58;1.80;;;0.90;;
19225;SDS011;9747;48.536;12.522;2023-12-22T06:54:26;0.95;;;0.85;;
19225;SDS011;9747;48.536;12.522;2023-12-22T06:56:55;1.48;;;0.80;;
19225;SDS011;9747;48.536;12.522;2023-12-22T06:59:23;1.08;;;0.90;;
19225;SDS011;9747;48.536;12.522;2023-12-22T07:01:50;1.15;;;0.85;;
19225;SDS011;9747;48.536;12.522;2023-12-22T07:04:18;1.48;;;0.90;;
19225;SDS011;9747;48.536;12.522;2023-12-22T07:06:45;1.05;;;0.80;;
19225;SDS011;9747;48.536;12.522;2023-12-22T07:09:29;2.83;;;0.93;;
19225;SDS011;9747;48.536;12.522;2023-12-22T07:12:01;0.70;;;0.70;;
19225;SDS011;9747;48.536;12.522;2023-12-22T07:14:29;0.70;;;0.70;;
19225;SDS011;9747;48.536;12.522;2023-12-22T07:16:57;0.80;;;0.80;;
19225;SDS011;9747;48.536;12.522;2023-12-22T07:19:26;2.20;;;0.90;;
19225;SDS011;9747;48.536;12.522;2023-12-22T07:21:54;1.08;;;0.90;;
19225;SDS011;9747;48.536;12.522;2023-12-22T07:24:21;1.00;;;0.70;;
19225;SDS011;9747;48.536;12.522;2023-12-22T07:26:49;0.60;;;0.60;;
19225;SDS011;9747;48.536;12.522;2023-12-22T07:29:18;1.80;;;0.80;;
19225;SDS011;9747;48.536;12.522;2023-12-22T07:31:45;1.33;;;0.70;;
19225;SDS011;9747;48.536;12.522;2023-12-22T07:34:13;2.25;;;0.73;;
19225;SDS011;9747;48.536;12.522;2023-12-22T07:36:42;1.75;;;0.63;;
19225;SDS011;9747;48.536;12.522;2023-12-22T07:39:09;1.45;;;0.70;;
19225;SDS011;9747;48.536;12.522;2023-12-22T07:41:37;0.98;;;0.65;;
19225;SDS011;9747;48.536;12.522;2023-12-22T07:44:05;0.77;;;0.77;;
19225;SDS011;9747;48.536;12.522;2023-12-22T07:46:34;0.68;;;0.63;;
19225;SDS011;9747;48.536;12.522;2023-12-22T07:49:01;0.98;;;0.70;;
19225;SDS011;9747;48.536;12.522;2023-12-22T07:51:28;2.13;;;0.60;;
19225;SDS011;9747;48.536;12.522;2023-12-22T07:53:56;1.02;;;0.68;;
19225;SDS011;9747;48.536;12.522;2023-12-22T07:56:23;1.30;;;0.80;;
19225;SDS011;9747;48.536;12.522;2023-12-22T07:58:50;1.00;;;0.70;;
19225;SDS011;9747;48.536;12.522;2023-12-22T08:01:18;1.05;;;0.75;;
19225;SDS011;9747;48.536;12.522;2023-12-22T08:03:47;0.95;;;0.75;;
19225;SDS011;9747;48.536;12.522;2023-12-22T08:06:15;0.55;;;0.55;;
19225;SDS011;9747;48.536;12.522;2023-12-22T08:08:42;1.33;;;0.95;;
19225;SDS011;9747;48.536;12.522;2023-12-22T08:11:09;1.25;;;0.80;;
19225;SDS011;9747;48.536;12.522;2023-12-22T08:13:37;1.17;;;0.55;;
19225;SDS011;9747;48.536;12.522;2023-12-22T08:16:04;1.23;;;1.05;;
19225;SDS011;9747;48.536;12.522;2023-12-22T08:18:32;0.85;;;0.70;;
19225;SDS011;9747;48.536;12.522;2023-12-22T08:21:01;0.80;;;0.65;;
19225;SDS011;9747;48.536;12.522;2023-12-22T08:23:28;0.75;;;0.70;;
19225;SDS011;9747;48.536;12.522;2023-12-22T08:25:56;0.70;;;0.70;;
19225;SDS011;9747;48.536;12.522;2023-12-22T08:28:24;0.80;;;0.80;;
19225;SDS011;9747;48.536;12.522;2023-12-22T08:30:51;2.03;;;0.80;;
19225;SDS011;9747;48.536;12.522;2023-12-22T08:33:18;0.88;;;0.60;;
19225;SDS011;9747;48.536;12.522;2023-12-22T08:35:46;0.80;;;0.80;;
19225;SDS011;9747;48.536;12.522;2023-12-22T08:38:14;0.70;;;0.70;;
19225;SDS011;9747;48.536;12.522;2023-12-22T08:40:42;0.52;;;0.52;;
19225;SDS011;9747;48.536;12.522;2023-12-22T08:43:10;0.85;;;0.63;;
19225;SDS011;9747;48.536;12.522;2023-12-22T08:45:37;1.27;;;0.80;;
19225;SDS011;9747;48.536;12.522;2023-12-22T08:48:05;1.58;;;0.52;;
19225;SDS011;9747;48.536;12.522;2023-12-22T08:50:34;0.88;;;0.60;;
19225;SDS011;9747;48.536;12.522;2023-12-22T08:53:01;2.72;;;1.20;;
19225;SDS011;9747;48.536;12.522;2023-12-22T08:55:30;3.15;;;0.80;;
19225;SDS011;9747;48.536;12.522;2023-12-22T08:57:57;2.22;;;0.75;;
19225;SDS011;9747;48.536;12.522;2023-12-22T09:00:24;1.67;;;0.70;;
19225;SDS011;9747;48.536;12.522;2023-12-22T09:02:52;4.75;;;1.25;;
19225;SDS011;9747;48.536;12.522;2023-12-22T09:05:19;2.05;;;1.30;;
19225;SDS011;9747;48.536;12.522;2023-12-22T09:07:46;2.40;;;2.00;;
19225;SDS011;9747;48.536;12.522;2023-12-22T09:10:14;3.10;;;1.60;;
19225;SDS011;9747;48.536;12.522;2023-12-22T09:12:43;2.30;;;1.60;;
19225;SDS011;9747;48.536;12.522;2023-12-22T09:15:10;4.85;;;1.70;;
19225;SDS011;9747;48.536;12.522;2023-12-22T09:17:38;2.65;;;1.40;;
19225;SDS011;9747;48.536;12.522;2023-12-22T09:20:07;2.35;;;1.30;;
19225;SDS011;9747;48.536;12.522;2023-12-22T09:22:35;1.77;;;1.20;;
19225;SDS011;9747;48.536;12.522;2023-12-22T09:25:03;2.42;;;1.50;;
19225;SDS011;9747;48.536;12.522;2023-12-22T09:27:31;1.55;;;1.10;;
19225;SDS011;9747;48.536;12.522;2023-12-22T09:30:00;1.30;;;1.10;;
19225;SDS011;9747;48.536;12.522;2023-12-22T09:32:27;6.85;;;5.00;;
19225;SDS011;9747;48.536;12.522;2023-12-22T09:34:55;21.90;;;13.10;;
19225;SDS011;9747;48.536;12.522;2023-12-22T09:37:24;11.23;;;8.45;;
19225;SDS011;9747;48.536;12.522;2023-12-22T09:39:51;10.05;;;5.90;;
19225;SDS011;9747;48.536;12.522;2023-12-22T09:42:19;7.18;;;5.22;;
19225;SDS011;9747;48.536;12.522;2023-12-22T09:44:48;8.90;;;5.40;;
19225;SDS011;9747;48.536;12.522;2023-12-22T09:47:17;6.18;;;4.65;;
19225;SDS011;9747;48.536;12.522;2023-12-22T09:49:45;7.70;;;4.90;;
19225;SDS011;9747;48.536;12.522;2023-12-22T09:52:13;7.97;;;4.90;;
19225;SDS011;9747;48.536;12.522;2023-12-22T09:54:41;6.70;;;4.88;;
19225;SDS011;9747;48.536;12.522;2023-12-22T09:57:08;4.57;;;4.13;;
19225;SDS011;9747;48.536;12.522;2023-12-22T09:59:36;6.00;;;4.05;;
19225;SDS011;9747;48.536;12.522;2023-12-22T10:02:04;4.40;;;3.70;;
19225;SDS011;9747;48.536;12.522;2023-12-22T10:04:35;5.97;;;3.85;;
19225;SDS011;9747;48.536;12.522;2023-12-22T10:07:02;5.30;;;3.90;;
19225;SDS011;9747;48.536;12.522;2023-12-22T10:09:30;4.60;;;3.38;;
19225;SDS011;9747;48.536;12.522;2023-12-22T10:11:58;3.85;;;3.45;;
19225;SDS011;9747;48.536;12.522;2023-12-22T10:14:27;3.95;;;3.40;;
19225;SDS011;9747;48.536;12.522;2023-12-22T10:16:55;4.10;;;3.22;;
19225;SDS011;9747;48.536;12.522;2023-12-22T10:19:22;3.80;;;3.10;;
19225;SDS011;9747;48.536;12.522;2023-12-22T10:21:51;3.92;;;3.30;;
19225;SDS011;9747;48.536;12.522;2023-12-22T10:24:36;6.68;;;3.50;;
19225;SDS011;9747;48.536;12.522;2023-12-22T10:27:05;4.10;;;3.47;;
19225;SDS011;9747;48.536;12.522;2023-12-22T10:29:32;6.20;;;3.72;;
19225;SDS011;9747;48.536;12.522;2023-12-22T10:32:00;10.65;;;6.78;;
19225;SDS011;9747;48.536;12.522;2023-12-22T10:34:28;9.60;;;7.25;;
19225;SDS011;9747;48.536;12.522;2023-12-22T10:36:56;7.90;;;6.75;;
19225;SDS011;9747;48.536;12.522;2023-12-22T10:39:26;8.77;;;6.28;;
19225;SDS011;9747;48.536;12.522;2023-12-22T10:41:55;7.82;;;6.50;;
19225;SDS011;9747;48.536;12.522;2023-12-22T10:44:23;9.82;;;6.18;;
19225;SDS011;9747;48.536;12.522;2023-12-22T10:46:51;9.13;;;6.13;;
19225;SDS011;9747;48.536;12.522;2023-12-22T10:49:20;6.60;;;5.90;;
19225;SDS011;9747;48.536;12.522;2023-12-22T10:51:48;5.65;;;5.07;;
19225;SDS011;9747;48.536;12.522;2023-12-22T10:54:18;18.15;;;13.23;;
19225;SDS011;9747;48.536;12.522;2023-12-22T10:56:46;12.50;;;9.75;;
19225;SDS011;9747;48.536;12.522;2023-12-22T10:59:16;10.02;;;7.90;;
19225;SDS011;9747;48.536;12.522;2023-12-22T11:01:44;8.88;;;6.10;;
19225;SDS011;9747;48.536;12.522;2023-12-22T11:04:13;10.00;;;6.05;;
19225;SDS011;9747;48.536;12.522;2023-12-22T11:06:46;11.07;;;5.63;;
19225;SDS011;9747;48.536;12.522;2023-12-22T11:09:16;6.07;;;5.40;;
19225;SDS011;9747;48.536;12.522;2023-12-22T11:11:45;8.23;;;5.25;;
19225;SDS011;9747;48.536;12.522;2023-12-22T11:14:14;7.00;;;5.18;;
19225;SDS011;9747;48.536;12.522;2023-12-22T11:16:42;6.20;;;5.00;;
19225;SDS011;9747;48.536;12.522;2023-12-22T11:19:12;7.07;;;4.95;;
19225;SDS011;9747;48.536;12.522;2023-12-22T11:21:40;11.55;;;5.65;;
19225;SDS011;9747;48.536;12.522;2023-12-22T11:24:08;20.38;;;8.43;;
19225;SDS011;9747;48.536;12.522;2023-12-22T11:26:40;44.15;;;13.88;;
19225;SDS011;9747;48.536;12.522;2023-12-22T11:29:09;57.88;;;19.13;;
19225;SDS011;9747;48.536;12.522;2023-12-22T11:31:36;51.38;;;17.45;;
19225;SDS011;9747;48.536;12.522;2023-12-22T11:34:03;57.17;;;21.30;;
19225;SDS011;9747;48.536;12.522;2023-12-22T11:36:32;69.13;;;22.17;;
19225;SDS011;9747;48.536;12.522;2023-12-22T11:39:01;59.83;;;21.63;;
19225;SDS011;9747;48.536;12.522;2023-12-22T11:41:30;37.75;;;12.77;;
19225;SDS011;9747;48.536;12.522;2023-12-22T11:44:01;15.32;;;5.90;;
19225;SDS011;9747;48.536;12.522;2023-12-22T11:46:31;14.80;;;7.40;;
19225;SDS011;9747;48.536;12.522;2023-12-22T11:48:59;12.15;;;6.50;;
19225;SDS011;9747;48.536;12.522;2023-12-22T11:51:30;10.82;;;4.93;;
19225;SDS011;9747;48.536;12.522;2023-12-22T11:54:00;51.97;;;12.32;;
19225;SDS011;9747;48.536;12.522;2023-12-22T11:56:28;26.38;;;10.07;;
19225;SDS011;9747;48.536;12.522;2023-12-22T11:58:56;23.85;;;8.82;;
19225;SDS011;9747;48.536;12.522;2023-12-22T12:01:28;20.30;;;8.95;;
19225;SDS011;9747;48.536;12.522;2023-12-22T12:03:57;18.40;;;8.43;;
19225;SDS011;9747;48.536;12.522;2023-12-22T12:06:32;17.10;;;8.18;;
19225;SDS011;9747;48.536;12.522;2023-12-22T12:09:03;21.33;;;8.27;;
19225;SDS011;9747;48.536;12.522;2023-12-22T12:14:40;23.60;;;8.15;;
19225;SDS011;9747;48.536;12.522;2023-12-22T12:17:10;23.40;;;8.70;;
19225;SDS011;9747;48.536;12.522;2023-12-22T12:19:38;19.10;;;7.60;;
19225;SDS011;9747;48.536;12.522;2023-12-22T12:22:07;15.98;;;7.05;;
19225;SDS011;9747;48.536;12.522;2023-12-22T12:24:35;18.52;;;8.00;;
19225;SDS011;9747;48.536;12.522;2023-12-22T12:27:04;11.80;;;6.43;;
19225;SDS011;9747;48.536;12.522;2023-12-22T12:29:32;13.98;;;6.70;;
19225;SDS011;9747;48.536;12.522;2023-12-22T12:32:02;13.18;;;6.45;;
19225;SDS011;9747;48.536;12.522;2023-12-22T12:34:32;13.70;;;6.75;;
19225;SDS011;9747;48.536;12.522;2023-12-22T12:37:01;12.73;;;5.80;;
19225;SDS011;9747;48.536;12.522;2023-12-22T12:39:29;10.80;;;5.70;;
19225;SDS011;9747;48.536;12.522;2023-12-22T12:41:59;15.38;;;5.95;;
19225;SDS011;9747;48.536;12.522;2023-12-22T12:44:27;11.38;;;5.68;;
19225;SDS011;9747;48.536;12.522;2023-12-22T12:46:57;12.88;;;5.95;;
19225;SDS011;9747;48.536;12.522;2023-12-22T12:49:26;8.93;;;5.80;;
19225;SDS011;9747;48.536;12.522;2023-12-22T12:51:57;11.77;;;5.60;;
19225;SDS011;9747;48.536;12.522;2023-12-22T12:54:26;10.80;;;5.28;;
19225;SDS011;9747;48.536;12.522;2023-12-22T12:56:53;10.07;;;5.13;;
19225;SDS011;9747;48.536;12.522;2023-12-22T12:59:21;9.25;;;5.38;;
19225;SDS011;9747;48.536;12.522;2023-12-22T13:01:49;10.43;;;5.20;;
19225;SDS011;9747;48.536;12.522;2023-12-22T13:04:17;10.00;;;4.63;;
19225;SDS011;9747;48.536;12.522;2023-12-22T13:06:45;13.13;;;5.78;;
19225;SDS011;9747;48.536;12.522;2023-12-22T13:09:14;12.23;;;6.00;;
19225;SDS011;9747;48.536;12.522;2023-12-22T13:11:43;14.10;;;6.25;;
19225;SDS011;9747;48.536;12.522;2023-12-22T13:14:12;11.10;;;6.35;;
19225;SDS011;9747;48.536;12.522;2023-12-22T13:16:47;12.75;;;6.47;;
19225;SDS011;9747;48.536;12.522;2023-12-22T13:19:15;13.23;;;8.13;;
19225;SDS011;9747;48.536;12.522;2023-12-22T13:21:42;17.20;;;11.45;;
19225;SDS011;9747;48.536;12.522;2023-12-22T13:24:10;10.50;;;5.97;;
19225;SDS011;9747;48.536;12.522;2023-12-22T13:26:42;11.95;;;6.32;;
19225;SDS011;9747;48.536;12.522;2023-12-22T13:29:11;12.45;;;6.10;;
19225;SDS011;9747;48.536;12.522;2023-12-22T13:31:39;9.93;;;6.50;;
19225;SDS011;9747;48.536;12.522;2023-12-22T13:34:08;10.27;;;6.22;;
19225;SDS011;9747;48.536;12.522;2023-12-22T13:36:36;10.15;;;5.97;;
19225;SDS011;9747;48.536;12.522;2023-12-22T13:39:04;8.52;;;5.40;;
19225;SDS011;9747;48.536;12.522;2023-12-22T13:41:32;9.82;;;5.55;;
19225;SDS011;9747;48.536;12.522;2023-12-22T13:44:05;11.88;;;5.53;;
19225;SDS011;9747;48.536;12.522;2023-12-22T13:46:33;7.90;;;5.13;;
19225;SDS011;9747;48.536;12.522;2023-12-22T13:49:01;8.63;;;5.30;;
19225;SDS011;9747;48.536;12.522;2023-12-22T13:51:38;7.97;;;5.00;;
19225;SDS011;9747;48.536;12.522;2023-12-22T13:54:06;9.27;;;4.88;;
19225;SDS011;9747;48.536;12.522;2023-12-22T13:56:34;11.13;;;6.45;;
19225;SDS011;9747;48.536;12.522;2023-12-22T13:59:02;8.43;;;5.63;;
19225;SDS011;9747;48.536;12.522;2023-12-22T14:01:31;10.15;;;5.38;;
19225;SDS011;9747;48.536;12.522;2023-12-22T14:03:58;8.90;;;5.38;;
19225;SDS011;9747;48.536;12.522;2023-12-22T14:06:26;6.80;;;4.65;;
19225;SDS011;9747;48.536;12.522;2023-12-22T14:08:54;8.05;;;5.13;;
19225;SDS011;9747;48.536;12.522;2023-12-22T14:11:21;11.88;;;5.38;;
19225;SDS011;9747;48.536;12.522;2023-12-22T14:13:49;9.10;;;4.95;;
19225;SDS011;9747;48.536;12.522;2023-12-22T14:16:16;7.20;;;4.40;;
19225;SDS011;9747;48.536;12.522;2023-12-22T14:18:45;4.93;;;4.07;;
19225;SDS011;9747;48.536;12.522;2023-12-22T14:21:13;7.47;;;4.15;;
19225;SDS011;9747;48.536;12.522;2023-12-22T14:23:41;5.78;;;4.50;;
19225;SDS011;9747;48.536;12.522;2023-12-22T14:26:08;5.97;;;4.35;;
19225;SDS011;9747;48.536;12.522;2023-12-22T14:28:36;6.22;;;3.80;;
19225;SDS011;9747;48.536;12.522;2023-12-22T14:31:03;7.38;;;4.30;;
19225;SDS011;9747;48.536;12.522;2023-12-22T14:33:31;6.63;;;4.10;;
19225;SDS011;9747;48.536;12.522;2023-12-22T14:35:59;5.00;;;3.92;;
19225;SDS011;9747;48.536;12.522;2023-12-22T14:38:27;5.47;;;3.80;;
19225;SDS011;9747;48.536;12.522;2023-12-22T14:40:54;5.65;;;3.65;;
19225;SDS011;9747;48.536;12.522;2023-12-22T14:43:22;4.28;;;3.42;;
19225;SDS011;9747;48.536;12.522;2023-12-22T14:45:49;6.13;;;4.03;;
19225;SDS011;9747;48.536;12.522;2023-12-22T14:48:17;6.85;;;3.92;;
19225;SDS011;9747;48.536;12.522;2023-12-22T14:50:44;4.43;;;3.38;;
19225;SDS011;9747;48.536;12.522;2023-12-22T14:53:13;5.13;;;3.35;;
19225;SDS011;9747;48.536;12.522;2023-12-22T14:55:40;5.25;;;3.67;;